createdAt,value
2022-07-30T00:00:30.574Z,11.30
2022-07-30T00:05:32.378Z,11.30
2022-07-30T00:10:34.232Z,11.20
2022-07-30T00:15:36.272Z,11.10
2022-07-30T00:20:40.329Z,11.00
2022-07-30T00:25:45.676Z,11.00
2022-07-30T00:30:47.530Z,11.00
2022-07-30T00:35:54.544Z,11.00
2022-07-30T00:40:56.333Z,10.90
2022-07-30T00:45:58.139Z,10.80
2022-07-30T00:51:00.242Z,10.70
2022-07-30T00:56:03.015Z,10.70
2022-07-30T01:01:05.039Z,10.70
2022-07-30T01:06:07.018Z,10.70
2022-07-30T01:11:16.564Z,10.70
2022-07-30T01:16:18.450Z,10.70
2022-07-30T01:21:28.555Z,10.70
2022-07-30T01:26:31.223Z,10.70
2022-07-30T01:31:33.985Z,10.70
2022-07-30T01:36:36.628Z,10.70
2022-07-30T01:41:39.276Z,10.70
2022-07-30T01:46:41.491Z,10.60
2022-07-30T01:51:47.615Z,10.60
2022-07-30T01:56:51.267Z,10.70
2022-07-30T02:01:53.110Z,10.80
2022-07-30T02:07:03.710Z,10.70
2022-07-30T02:12:26.339Z,10.60
2022-07-30T02:17:39.880Z,10.60
2022-07-30T02:22:48.877Z,10.50
2022-07-30T02:27:58.311Z,10.50
2022-07-30T02:33:04.732Z,10.50
2022-07-30T02:38:08.067Z,10.50
2022-07-30T02:43:11.470Z,10.50
2022-07-30T02:48:34.353Z,10.60
2022-07-30T02:53:38.384Z,10.70
2022-07-30T02:58:41.380Z,10.70
2022-07-30T03:03:44.458Z,10.70
2022-07-30T03:08:46.936Z,10.70
2022-07-30T03:13:48.857Z,10.70
2022-07-30T03:18:53.351Z,10.80
2022-07-30T03:23:56.813Z,10.90
2022-07-30T03:28:59.175Z,10.90
2022-07-30T03:34:02.531Z,11.00
2022-07-30T03:39:05.481Z,11.00
2022-07-30T03:44:08.555Z,11.10
2022-07-30T03:49:11.143Z,11.20
2022-07-30T03:54:15.175Z,11.50
2022-07-30T03:59:17.365Z,12.50
2022-07-30T04:04:19.199Z,13.60
2022-07-30T04:09:20.990Z,14.00
2022-07-30T04:14:22.802Z,14.00
2022-07-30T04:19:44.651Z,13.60
2022-07-30T04:24:48.084Z,15.60
2022-07-30T04:29:49.920Z,15.80
2022-07-30T04:34:54.613Z,16.20
2022-07-30T04:39:57.798Z,15.70
2022-07-30T04:44:59.568Z,15.30
2022-07-30T04:50:02.077Z,15.10
2022-07-30T04:55:06.721Z,15.10
2022-07-30T05:00:09.366Z,16.70
2022-07-30T05:05:16.257Z,16.70
2022-07-30T05:10:18.435Z,16.20
2022-07-30T05:15:20.344Z,16.10
2022-07-30T05:20:22.124Z,17.90
2022-07-30T05:25:23.971Z,19.40
2022-07-30T05:30:27.586Z,18.90
2022-07-30T05:35:29.685Z,18.30
2022-07-30T05:40:31.522Z,18.30
2022-07-30T05:45:33.416Z,19.00
2022-07-30T05:50:35.296Z,20.20
2022-07-30T05:55:37.111Z,22.20
2022-07-30T06:00:38.940Z,26.00
2022-07-30T06:05:40.816Z,29.20
2022-07-30T06:10:42.576Z,27.30
2022-07-30T06:15:44.838Z,24.20
2022-07-30T06:20:46.683Z,21.80
2022-07-30T06:25:48.932Z,21.30
2022-07-30T06:30:50.806Z,20.80
2022-07-30T06:35:52.775Z,20.60
2022-07-30T06:40:57.139Z,20.10
2022-07-30T06:46:01.205Z,19.70
2022-07-30T06:51:03.226Z,19.70
2022-07-30T06:56:05.101Z,21.60
2022-07-30T07:01:06.962Z,28.50
2022-07-30T07:06:13.160Z,32.30
2022-07-30T07:11:15.037Z,34.90
2022-07-30T07:16:16.946Z,36.20
2022-07-30T07:21:19.468Z,36.60
2022-07-30T07:26:21.438Z,35.50
2022-07-30T07:32:05.842Z,36.90
2022-07-30T07:36:45.052Z,35.40
2022-07-30T07:41:48.313Z,29.40
2022-07-30T07:46:51.203Z,30.50
2022-07-30T07:51:53.000Z,32.70
2022-07-30T07:56:57.717Z,35.20
2022-07-30T08:01:59.580Z,36.70
2022-07-30T08:07:06.065Z,34.50
2022-07-30T08:12:08.194Z,36.00
2022-07-30T08:17:10.007Z,37.40
2022-07-30T08:22:12.056Z,38.60
2022-07-30T08:27:13.851Z,38.10
2022-07-30T08:32:15.675Z,37.30
2022-07-30T08:37:17.519Z,34.80
2022-07-30T08:42:19.548Z,36.00
2022-07-30T08:47:26.804Z,36.00
2022-07-30T08:52:28.852Z,37.80
2022-07-30T08:57:34.361Z,36.70
2022-07-30T09:02:36.152Z,37.70
2022-07-30T09:07:38.566Z,34.90
2022-07-30T09:12:42.762Z,33.60
2022-07-30T09:17:53.752Z,35.50
2022-07-30T09:22:58.746Z,35.70
2022-07-30T09:28:00.640Z,35.20
2022-07-30T09:33:03.446Z,35.50
2022-07-30T09:38:06.902Z,34.60
2022-07-30T09:43:12.095Z,32.10
2022-07-30T09:48:25.421Z,29.60
2022-07-30T09:53:27.500Z,31.80
2022-07-30T09:58:40.380Z,35.10
2022-07-30T10:03:47.938Z,34.30
2022-07-30T10:08:51.655Z,32.70
2022-07-30T10:13:56.710Z,31.00
2022-07-30T10:19:00.640Z,27.40
2022-07-30T10:24:02.662Z,26.00
2022-07-30T10:29:05.300Z,26.60
2022-07-30T10:34:07.968Z,25.70
2022-07-30T10:39:14.989Z,25.10
2022-07-30T10:44:33.874Z,24.20
2022-07-30T10:49:41.315Z,23.70
2022-07-30T10:54:45.503Z,23.30
2022-07-30T11:00:09.516Z,22.90
2022-07-30T11:05:43.847Z,22.90
2022-07-30T11:10:44.066Z,22.70
2022-07-30T11:15:58.567Z,22.60
2022-07-30T11:21:21.497Z,22.60
2022-07-30T11:26:41.170Z,22.70
2022-07-30T11:31:56.591Z,22.60
2022-07-30T11:37:22.077Z,22.40
2022-07-30T11:42:30.364Z,22.50
2022-07-30T11:47:32.308Z,22.60
2022-07-30T11:52:34.489Z,22.70
2022-07-30T11:57:42.964Z,22.60
2022-07-30T12:02:45.497Z,22.70
2022-07-30T12:07:47.351Z,23.00
2022-07-30T12:12:49.172Z,22.70
2022-07-30T12:18:00.766Z,22.40
2022-07-30T12:23:14.039Z,22.80
2022-07-30T12:28:27.640Z,22.90
2022-07-30T12:33:29.482Z,23.40
2022-07-30T12:38:44.933Z,23.20
2022-07-30T12:43:52.424Z,23.20
2022-07-30T12:48:57.141Z,23.50
2022-07-30T12:54:01.237Z,23.10
2022-07-30T12:59:03.061Z,22.90
2022-07-30T13:04:08.373Z,22.70
2022-07-30T13:09:21.369Z,22.50
2022-07-30T13:14:24.673Z,22.70
2022-07-30T13:19:28.917Z,23.10
2022-07-30T13:24:30.684Z,22.90
2022-07-30T13:29:32.496Z,23.30
2022-07-30T13:34:34.257Z,23.10
2022-07-30T13:39:36.224Z,23.10
2022-07-30T13:44:38.193Z,23.00
2022-07-30T13:49:44.130Z,22.80
2022-07-30T13:54:46.134Z,22.80
2022-07-30T13:59:48.144Z,22.90
2022-07-30T14:04:49.963Z,23.40
2022-07-30T14:09:54.538Z,23.40
2022-07-30T14:14:56.525Z,23.60
2022-07-30T14:19:58.339Z,23.30
2022-07-30T14:25:03.063Z,22.90
2022-07-30T14:30:07.537Z,23.00
2022-07-30T14:35:10.397Z,23.00
2022-07-30T14:40:13.112Z,22.80
2022-07-30T14:45:15.076Z,23.00
2022-07-30T14:50:16.853Z,22.90
2022-07-30T14:55:19.026Z,22.60
2022-07-30T15:00:21.354Z,22.50
2022-07-30T15:05:26.609Z,22.40
2022-07-30T15:10:28.442Z,22.40
2022-07-30T15:15:35.738Z,22.50
2022-07-30T15:20:40.209Z,22.70
2022-07-30T15:25:42.821Z,22.70
2022-07-30T15:30:44.593Z,22.70
2022-07-30T15:35:46.496Z,22.50
2022-07-30T15:40:48.388Z,22.70
2022-07-30T15:45:56.034Z,22.70
2022-07-30T15:51:03.602Z,22.60
2022-07-30T15:56:05.873Z,22.50
2022-07-30T16:01:08.752Z,22.30
2022-07-30T16:06:10.650Z,22.20
2022-07-30T16:11:12.503Z,22.10
2022-07-30T16:16:14.401Z,22.10
2022-07-30T16:21:16.212Z,21.80
2022-07-30T16:26:19.129Z,21.70
2022-07-30T16:31:21.051Z,21.70
2022-07-30T16:36:23.030Z,21.70
2022-07-30T16:41:24.851Z,21.60
2022-07-30T16:46:27.365Z,21.40
2022-07-30T16:51:29.219Z,21.20
2022-07-30T16:56:31.126Z,21.10
2022-07-30T17:01:33.037Z,21.00
2022-07-30T17:06:36.354Z,20.90
2022-07-30T17:11:46.997Z,20.80
2022-07-30T17:16:50.320Z,20.60
2022-07-30T17:21:52.320Z,20.40
2022-07-30T17:26:54.190Z,20.30
2022-07-30T17:31:56.006Z,20.10
2022-07-30T17:36:58.343Z,20.00
2022-07-30T17:42:06.309Z,19.90
2022-07-30T17:47:14.400Z,19.80
2022-07-30T17:52:17.032Z,19.70
2022-07-30T17:57:18.836Z,19.50
2022-07-30T18:02:27.532Z,19.40
2022-07-30T18:07:31.086Z,19.20
2022-07-30T18:12:34.319Z,19.00
2022-07-30T18:17:36.741Z,18.90
2022-07-30T18:22:38.636Z,18.60
2022-07-30T18:27:42.371Z,18.50
2022-07-30T18:32:45.281Z,18.30
2022-07-30T18:37:47.263Z,18.10
2022-07-30T18:42:49.513Z,17.80
2022-07-30T18:47:51.902Z,17.60
2022-07-30T18:52:54.332Z,17.30
2022-07-30T18:57:56.193Z,17.10
2022-07-30T19:02:59.460Z,16.90
2022-07-30T19:08:01.313Z,16.70
2022-07-30T19:13:04.208Z,16.70
2022-07-30T19:18:06.140Z,16.50
2022-07-30T19:23:08.535Z,16.50
2022-07-30T19:28:11.914Z,16.40
2022-07-30T19:33:15.416Z,16.30
2022-07-30T19:38:21.768Z,16.20
2022-07-30T19:43:25.699Z,16.10
2022-07-30T19:48:31.592Z,16.00
2022-07-30T19:53:34.650Z,15.90
2022-07-30T19:58:37.255Z,15.70
2022-07-30T20:03:39.373Z,15.70
2022-07-30T20:08:41.747Z,15.50
2022-07-30T20:13:46.931Z,15.40
2022-07-30T20:18:49.755Z,15.30
2022-07-30T20:23:54.071Z,15.30
2022-07-30T20:28:55.848Z,15.10
2022-07-30T20:33:58.981Z,15.10
2022-07-30T20:39:01.069Z,15.10
2022-07-30T20:44:04.594Z,15.10
2022-07-30T20:49:06.434Z,14.90
2022-07-30T20:54:08.896Z,14.80
2022-07-30T20:59:10.705Z,14.70
2022-07-30T21:04:23.771Z,14.60
2022-07-30T21:09:29.209Z,14.50
2022-07-30T21:14:52.808Z,14.30
2022-07-30T21:19:54.635Z,14.20
2022-07-30T21:24:56.761Z,14.40
2022-07-30T21:29:58.616Z,14.20
2022-07-30T21:35:08.433Z,14.10
2022-07-30T21:40:11.047Z,14.00
2022-07-30T21:45:12.837Z,14.00
2022-07-30T21:50:16.129Z,14.00
2022-07-30T21:55:18.219Z,14.00
2022-07-30T22:00:44.668Z,14.00
2022-07-30T22:05:47.454Z,14.00
2022-07-30T22:10:50.780Z,14.00
2022-07-30T22:15:52.694Z,13.90
2022-07-30T22:20:55.300Z,13.80
2022-07-30T22:26:00.092Z,13.70
2022-07-30T22:31:02.235Z,13.70
2022-07-30T22:36:09.847Z,13.70
2022-07-30T22:41:13.978Z,13.60
2022-07-30T22:46:31.134Z,13.40
2022-07-30T22:52:03.137Z,13.30
2022-07-30T22:57:03.867Z,13.40
2022-07-30T23:02:06.543Z,13.30
2022-07-30T23:07:14.179Z,13.20
2022-07-30T23:12:21.419Z,13.10
2022-07-30T23:17:23.330Z,13.20
2022-07-30T23:22:25.757Z,13.10
2022-07-30T23:27:27.597Z,13.10
2022-07-30T23:32:30.100Z,13.10
2022-07-30T23:37:47.862Z,13.00
2022-07-30T23:42:51.781Z,12.90
2022-07-30T23:48:02.542Z,12.80
2022-07-30T23:53:05.346Z,12.80
2022-07-30T23:58:07.494Z,12.70
